• Join FlightAware (Why Join?)
  • Login
  • US Flag 
10:51PM EDT


 

Airport Tracker/Info


-or-


 

Live Flight TrackerFlight Track Log ✈ N600AJ ✈ 23-Aug-2013 ✈ KLEB - KROC

Flight Track Log - Related Links

Times and Time Zones

All times are in EDT time to prevent confusion due to time zone crossing. See the N600AJ flight status page for this flight to view local times or setup timezone preferences in your user account.

Time Position Orientation Groundspeed Altitude Reporting Facility
EDT Latitude Longitude Course Direction KTS MPH feet Rate Location/Type
01:20PM 43.5701 -73.0354 264° West  Level FlightAware Approximate
01:20PM 43.6611 -72.3339 324° Northwest 454 522 6,500  Level Boston Center
01:21PM 43.6508 -72.4400 262° West 361 415 11,200 4,140 Climbing Boston Center
01:22PM 43.6425 -72.5664 265° West 340 391 14,800 3,600 Climbing Boston Center
01:23PM 43.6339 -72.6983 265° West 335 386 18,500 3,180 Climbing Boston Center
01:24PM 43.6208 -72.8386 263° West 353 406 21,300 2,700 Climbing Boston Center
01:25PM 43.6100 -72.9878 264° West 370 426 23,900 1,320 Climbing Boston Center
01:26PM 43.5922 -73.1594 262° West 396 456 24,000  Climbing Boston Center
01:27PM 43.5786 -73.3169 263° West 418 481 24,000  Level Boston Center
01:28PM 43.5647 -73.4803 263° West 428 493 24,000  Level Boston Center
01:29PM 43.5508 -73.6403 263° West 428 493 24,000  Level Boston Center
01:30PM 43.5322 -73.8033 261° West 428 493 24,000  Level Boston Center
01:31PM 43.5200 -73.9461 263° West 428 493 24,000  Level Boston Center
01:32PM 43.5072 -74.1089 264° West 428 493 24,000  Level Boston Center
01:33PM 43.4925 -74.2717 263° West 428 493 24,000  Level Boston Center
01:34PM 43.4750 -74.4344 262° West 428 493 24,000  Level Boston Center
01:35PM 43.4617 -74.5969 264° West 428 493 24,000  Level Boston Center
01:36PM 43.4461 -74.7594 263° West 428 493 24,000  Level Boston Center
01:37PM 43.4300 -74.9217 262° West 428 493 24,000  Level Boston Center
01:38PM 43.4139 -75.0842 262° West 428 493 24,000  Level Boston Center
01:39PM 43.3994 -75.2492 263° West 428 493 24,000  Level Boston Center
01:40PM 43.3828 -75.4142 262° West 433 498 24,000  Level Boston Center
01:41PM 43.3614 -75.5931 261° West 439 505 24,000 -480 Level Boston Center
01:42PM 43.3444 -75.7522 262° West 439 505 23,100 -1,320 Descending Boston Center
01:43PM 43.3272 -75.9139 262° West 439 505 21,500 -1,620 Descending Boston Center
01:44PM 43.3117 -76.0728 262° West 434 499 20,000 -1,140 Descending Boston Center
01:46PM 43.2725 -76.4000 261° West 414 476 18,000 -660 Descending Cleveland Center
01:47PM 43.2550 -76.5550 261° West 414 476 18,000 -60 Level Cleveland Center
01:48PM 43.2375 -76.7103 261° West 414 476 17,900 -1,020 Descending Cleveland Center
01:49PM 43.2194 -76.8625 261° West 414 476 16,000 -2,220 Descending Cleveland Center
01:50PM 43.2039 -76.9658 258° West 400 460 14,400 -2,400 Descending Cleveland Center
01:51PM 43.1856 -77.1150 260° West 399 459 12,200 -1,740 Descending Cleveland Center
01:52PM 43.1611 -77.2703 258° West 351 404 10,800 -1,440 Descending Cleveland Center
01:53PM 43.1181 -77.3747 241° Southwest 279 321 9,200 -1,800 Descending Cleveland Center
01:54PM 43.0811 -77.4733 243° Southwest 276 318 7,100 -1,980 Descending Cleveland Center
01:55PM 43.0500 -77.5517 241° Southwest 261 300 5,200 -2,220 Descending Cleveland Center
01:56PM 43.0147 -77.6442 242° Southwest 262 302 2,900 -1,380 Descending Cleveland Center
01:57PM 43.0353 -77.7172 291° West 194 223 2,500 -780 Descending Cleveland Center
01:58PM 43.0750 -77.7211 356° North 144 166 1,400 -900 Descending Cleveland Center
01:59PM 43.1075 -77.6883 36° Northeast 95 109 600 -720 Descending Cleveland Center